sensor_id;sensor_type;location;lat;lon;timestamp;temperature;humidity
17252;DHT22;8742;51.716;8.790;2023-02-01T00:00:26;4.60;99.90
17252;DHT22;8742;51.716;8.790;2023-02-01T00:02:53;4.60;99.90
17252;DHT22;8742;51.716;8.790;2023-02-01T00:05:19;4.60;99.90
17252;DHT22;8742;51.716;8.790;2023-02-01T00:07:47;4.60;99.90
17252;DHT22;8742;51.716;8.790;2023-02-01T00:10:16;4.60;99.90
17252;DHT22;8742;51.716;8.790;2023-02-01T00:12:43;4.60;99.90
17252;DHT22;8742;51.716;8.790;2023-02-01T00:15:10;4.60;99.90
17252;DHT22;8742;51.716;8.790;2023-02-01T00:17:37;4.60;99.90
17252;DHT22;8742;51.716;8.790;2023-02-01T00:20:05;4.60;99.90
17252;DHT22;8742;51.716;8.790;2023-02-01T00:22:32;4.60;99.90
17252;DHT22;8742;51.716;8.790;2023-02-01T00:24:59;4.60;99.90
17252;DHT22;8742;51.716;8.790;2023-02-01T00:27:27;4.60;99.90
17252;DHT22;8742;51.716;8.790;2023-02-01T00:29:54;4.60;99.90
17252;DHT22;8742;51.716;8.790;2023-02-01T00:32:21;4.60;99.90
17252;DHT22;8742;51.716;8.790;2023-02-01T00:34:48;4.60;99.90
17252;DHT22;8742;51.716;8.790;2023-02-01T00:37:15;4.60;99.90
17252;DHT22;8742;51.716;8.790;2023-02-01T00:39:41;4.60;99.90
17252;DHT22;8742;51.716;8.790;2023-02-01T00:42:08;4.60;99.90
17252;DHT22;8742;51.716;8.790;2023-02-01T00:44:36;4.60;99.90
17252;DHT22;8742;51.716;8.790;2023-02-01T00:47:03;4.60;99.90
17252;DHT22;8742;51.716;8.790;2023-02-01T00:49:30;4.60;99.90
17252;DHT22;8742;51.716;8.790;2023-02-01T00:51:57;4.60;99.90
17252;DHT22;8742;51.716;8.790;2023-02-01T00:54:24;4.60;99.90
17252;DHT22;8742;51.716;8.790;2023-02-01T00:56:51;4.70;99.90
17252;DHT22;8742;51.716;8.790;2023-02-01T00:59:17;4.70;99.90
17252;DHT22;8742;51.716;8.790;2023-02-01T01:01:46;4.70;99.90
17252;DHT22;8742;51.716;8.790;2023-02-01T01:04:12;4.70;99.90
17252;DHT22;8742;51.716;8.790;2023-02-01T01:06:39;4.70;99.90
17252;DHT22;8742;51.716;8.790;2023-02-01T01:09:07;4.70;99.90
17252;DHT22;8742;51.716;8.790;2023-02-01T01:11:36;4.80;99.90
17252;DHT22;8742;51.716;8.790;2023-02-01T01:14:05;4.80;99.90
17252;DHT22;8742;51.716;8.790;2023-02-01T01:16:32;4.80;99.90
17252;DHT22;8742;51.716;8.790;2023-02-01T01:19:01;4.80;99.90
17252;DHT22;8742;51.716;8.790;2023-02-01T01:21:29;4.80;99.90
17252;DHT22;8742;51.716;8.790;2023-02-01T01:23:56;4.80;99.90
17252;DHT22;8742;51.716;8.790;2023-02-01T01:26:24;4.80;99.90
17252;DHT22;8742;51.716;8.790;2023-02-01T01:28:52;4.80;99.90
17252;DHT22;8742;51.716;8.790;2023-02-01T01:31:19;4.90;99.90
17252;DHT22;8742;51.716;8.790;2023-02-01T01:33:51;4.90;99.90
17252;DHT22;8742;51.716;8.790;2023-02-01T01:36:20;4.90;99.90
17252;DHT22;8742;51.716;8.790;2023-02-01T01:38:47;4.90;99.90
17252;DHT22;8742;51.716;8.790;2023-02-01T01:41:16;4.90;99.90
17252;DHT22;8742;51.716;8.790;2023-02-01T01:43:50;4.90;99.90
17252;DHT22;8742;51.716;8.790;2023-02-01T01:46:18;5.00;99.90
17252;DHT22;8742;51.716;8.790;2023-02-01T01:48:47;5.00;99.90
17252;DHT22;8742;51.716;8.790;2023-02-01T01:51:17;5.00;99.90
17252;DHT22;8742;51.716;8.790;2023-02-01T01:53:55;5.10;99.90
17252;DHT22;8742;51.716;8.790;2023-02-01T01:56:25;5.10;99.90
17252;DHT22;8742;51.716;8.790;2023-02-01T01:58:53;5.10;99.90
17252;DHT22;8742;51.716;8.790;2023-02-01T02:01:20;5.10;99.90
17252;DHT22;8742;51.716;8.790;2023-02-01T02:03:47;5.10;99.90
17252;DHT22;8742;51.716;8.790;2023-02-01T02:06:21;5.10;99.90
17252;DHT22;8742;51.716;8.790;2023-02-01T02:08:51;5.10;99.90
17252;DHT22;8742;51.716;8.790;2023-02-01T02:11:18;5.10;99.90
17252;DHT22;8742;51.716;8.790;2023-02-01T02:13:48;5.10;99.90
17252;DHT22;8742;51.716;8.790;2023-02-01T02:16:40;5.10;99.90
17252;DHT22;8742;51.716;8.790;2023-02-01T02:28:43;5.20;99.90
17252;DHT22;8742;51.716;8.790;2023-02-01T02:31:30;5.30;99.90
17252;DHT22;8742;51.716;8.790;2023-02-01T02:34:14;5.30;99.90
17252;DHT22;8742;51.716;8.790;2023-02-01T02:36:50;5.30;99.90
17252;DHT22;8742;51.716;8.790;2023-02-01T02:39:24;5.30;99.90
17252;DHT22;8742;51.716;8.790;2023-02-01T02:42:00;5.30;99.90
17252;DHT22;8742;51.716;8.790;2023-02-01T02:44:48;5.30;99.90
17252;DHT22;8742;51.716;8.790;2023-02-01T02:47:42;5.40;99.90
17252;DHT22;8742;51.716;8.790;2023-02-01T02:50:17;5.40;99.90
17252;DHT22;8742;51.716;8.790;2023-02-01T02:53:09;5.40;99.90
17252;DHT22;8742;51.716;8.790;2023-02-01T02:55:56;5.40;99.90
17252;DHT22;8742;51.716;8.790;2023-02-01T02:58:42;5.40;99.90
17252;DHT22;8742;51.716;8.790;2023-02-01T03:01:27;5.40;99.90
17252;DHT22;8742;51.716;8.790;2023-02-01T03:04:12;5.40;99.90
17252;DHT22;8742;51.716;8.790;2023-02-01T03:06:44;5.40;99.90
17252;DHT22;8742;51.716;8.790;2023-02-01T03:09:16;5.40;99.90
17252;DHT22;8742;51.716;8.790;2023-02-01T03:11:47;5.40;99.90
17252;DHT22;8742;51.716;8.790;2023-02-01T03:14:34;5.40;99.90
17252;DHT22;8742;51.716;8.790;2023-02-01T03:17:05;5.40;99.90
17252;DHT22;8742;51.716;8.790;2023-02-01T03:19:36;5.40;99.90
17252;DHT22;8742;51.716;8.790;2023-02-01T03:22:07;5.40;99.90
17252;DHT22;8742;51.716;8.790;2023-02-01T03:24:38;5.40;99.90
17252;DHT22;8742;51.716;8.790;2023-02-01T03:27:08;5.40;99.90
17252;DHT22;8742;51.716;8.790;2023-02-01T03:29:40;5.40;99.90
17252;DHT22;8742;51.716;8.790;2023-02-01T03:32:11;5.40;99.90
17252;DHT22;8742;51.716;8.790;2023-02-01T03:34:38;5.50;99.90
17252;DHT22;8742;51.716;8.790;2023-02-01T03:37:10;5.50;99.90
17252;DHT22;8742;51.716;8.790;2023-02-01T03:39:41;5.50;99.90
17252;DHT22;8742;51.716;8.790;2023-02-01T03:42:14;5.50;99.90
17252;DHT22;8742;51.716;8.790;2023-02-01T03:44:47;5.50;99.90
17252;DHT22;8742;51.716;8.790;2023-02-01T03:47:18;5.50;99.90
17252;DHT22;8742;51.716;8.790;2023-02-01T03:49:49;5.50;99.90
17252;DHT22;8742;51.716;8.790;2023-02-01T03:52:22;5.50;99.90
17252;DHT22;8742;51.716;8.790;2023-02-01T03:54:50;5.50;99.90
17252;DHT22;8742;51.716;8.790;2023-02-01T03:57:23;5.50;99.90
17252;DHT22;8742;51.716;8.790;2023-02-01T03:59:51;5.50;99.90
17252;DHT22;8742;51.716;8.790;2023-02-01T04:02:18;5.60;99.90
17252;DHT22;8742;51.716;8.790;2023-02-01T04:04:45;5.60;99.90
17252;DHT22;8742;51.716;8.790;2023-02-01T04:07:12;5.50;99.90
17252;DHT22;8742;51.716;8.790;2023-02-01T04:09:40;5.50;99.90
17252;DHT22;8742;51.716;8.790;2023-02-01T04:12:07;5.50;99.90
17252;DHT22;8742;51.716;8.790;2023-02-01T04:14:34;5.60;99.90
17252;DHT22;8742;51.716;8.790;2023-02-01T04:17:01;5.60;99.90
17252;DHT22;8742;51.716;8.790;2023-02-01T04:19:28;5.60;99.90
17252;DHT22;8742;51.716;8.790;2023-02-01T04:21:55;5.60;99.90
17252;DHT22;8742;51.716;8.790;2023-02-01T04:24:22;5.60;99.90
17252;DHT22;8742;51.716;8.790;2023-02-01T04:26:50;5.60;99.90
17252;DHT22;8742;51.716;8.790;2023-02-01T04:29:17;5.60;99.90
17252;DHT22;8742;51.716;8.790;2023-02-01T04:31:43;5.60;99.90
17252;DHT22;8742;51.716;8.790;2023-02-01T04:34:11;5.60;99.90
17252;DHT22;8742;51.716;8.790;2023-02-01T04:36:38;5.70;99.90
17252;DHT22;8742;51.716;8.790;2023-02-01T04:39:05;5.60;99.90
17252;DHT22;8742;51.716;8.790;2023-02-01T04:41:32;5.60;99.90
17252;DHT22;8742;51.716;8.790;2023-02-01T04:44:00;5.70;99.90
17252;DHT22;8742;51.716;8.790;2023-02-01T04:46:27;5.70;99.90
17252;DHT22;8742;51.716;8.790;2023-02-01T04:48:54;5.60;99.90
17252;DHT22;8742;51.716;8.790;2023-02-01T04:51:20;5.70;99.90
17252;DHT22;8742;51.716;8.790;2023-02-01T04:53:47;5.70;99.90
17252;DHT22;8742;51.716;8.790;2023-02-01T04:56:14;5.70;99.90
17252;DHT22;8742;51.716;8.790;2023-02-01T04:58:41;5.60;99.90
17252;DHT22;8742;51.716;8.790;2023-02-01T05:01:09;5.60;99.90
17252;DHT22;8742;51.716;8.790;2023-02-01T05:03:36;5.60;99.90
17252;DHT22;8742;51.716;8.790;2023-02-01T05:06:03;5.50;99.90
17252;DHT22;8742;51.716;8.790;2023-02-01T05:08:30;5.50;99.90
17252;DHT22;8742;51.716;8.790;2023-02-01T05:10:57;5.40;99.90
17252;DHT22;8742;51.716;8.790;2023-02-01T05:13:27;5.40;99.90
17252;DHT22;8742;51.716;8.790;2023-02-01T05:16:14;5.40;99.90
17252;DHT22;8742;51.716;8.790;2023-02-01T05:18:41;5.40;99.90
17252;DHT22;8742;51.716;8.790;2023-02-01T05:21:08;5.40;99.90
17252;DHT22;8742;51.716;8.790;2023-02-01T05:23:35;5.40;99.90
17252;DHT22;8742;51.716;8.790;2023-02-01T05:26:22;5.40;99.90
17252;DHT22;8742;51.716;8.790;2023-02-01T05:28:50;5.30;99.90
17252;DHT22;8742;51.716;8.790;2023-02-01T05:31:18;5.30;99.90
17252;DHT22;8742;51.716;8.790;2023-02-01T05:33:45;5.30;99.90
17252;DHT22;8742;51.716;8.790;2023-02-01T05:36:12;5.30;99.90
17252;DHT22;8742;51.716;8.790;2023-02-01T05:38:39;5.30;99.90
17252;DHT22;8742;51.716;8.790;2023-02-01T05:41:06;5.30;99.90
17252;DHT22;8742;51.716;8.790;2023-02-01T05:43:33;5.30;99.90
17252;DHT22;8742;51.716;8.790;2023-02-01T05:45:59;5.30;99.90
17252;DHT22;8742;51.716;8.790;2023-02-01T05:48:28;5.30;99.90
17252;DHT22;8742;51.716;8.790;2023-02-01T05:50:54;5.30;99.90
17252;DHT22;8742;51.716;8.790;2023-02-01T05:53:21;5.30;99.90
17252;DHT22;8742;51.716;8.790;2023-02-01T05:55:48;5.30;99.90
17252;DHT22;8742;51.716;8.790;2023-02-01T05:58:15;5.20;99.90
17252;DHT22;8742;51.716;8.790;2023-02-01T06:00:42;5.30;99.90
17252;DHT22;8742;51.716;8.790;2023-02-01T06:03:08;5.20;99.90
17252;DHT22;8742;51.716;8.790;2023-02-01T06:05:37;5.30;99.90
17252;DHT22;8742;51.716;8.790;2023-02-01T06:08:03;5.20;99.90
17252;DHT22;8742;51.716;8.790;2023-02-01T06:10:33;5.30;99.90
17252;DHT22;8742;51.716;8.790;2023-02-01T06:12:59;5.30;99.90
17252;DHT22;8742;51.716;8.790;2023-02-01T06:15:26;5.30;99.90
17252;DHT22;8742;51.716;8.790;2023-02-01T06:17:53;5.30;99.90
17252;DHT22;8742;51.716;8.790;2023-02-01T06:20:21;5.30;99.90
17252;DHT22;8742;51.716;8.790;2023-02-01T06:22:49;5.30;99.90
17252;DHT22;8742;51.716;8.790;2023-02-01T06:25:16;5.30;99.90
17252;DHT22;8742;51.716;8.790;2023-02-01T06:27:43;5.40;99.90
17252;DHT22;8742;51.716;8.790;2023-02-01T06:30:11;5.40;99.90
17252;DHT22;8742;51.716;8.790;2023-02-01T06:32:39;5.40;99.90
17252;DHT22;8742;51.716;8.790;2023-02-01T06:35:07;5.40;99.90
17252;DHT22;8742;51.716;8.790;2023-02-01T06:37:36;5.50;99.90
17252;DHT22;8742;51.716;8.790;2023-02-01T06:40:06;5.50;99.90
17252;DHT22;8742;51.716;8.790;2023-02-01T06:42:33;5.60;99.90
17252;DHT22;8742;51.716;8.790;2023-02-01T06:45:00;5.60;99.90
17252;DHT22;8742;51.716;8.790;2023-02-01T06:47:26;5.60;99.90
17252;DHT22;8742;51.716;8.790;2023-02-01T06:49:53;5.60;99.90
17252;DHT22;8742;51.716;8.790;2023-02-01T06:52:20;5.60;99.90
17252;DHT22;8742;51.716;8.790;2023-02-01T06:54:47;5.60;99.90
17252;DHT22;8742;51.716;8.790;2023-02-01T06:57:15;5.60;99.90
17252;DHT22;8742;51.716;8.790;2023-02-01T06:59:42;5.60;99.90
17252;DHT22;8742;51.716;8.790;2023-02-01T07:02:10;5.60;99.90
17252;DHT22;8742;51.716;8.790;2023-02-01T07:04:37;5.70;99.90
17252;DHT22;8742;51.716;8.790;2023-02-01T07:07:04;5.60;99.90
17252;DHT22;8742;51.716;8.790;2023-02-01T07:09:30;5.60;99.90
17252;DHT22;8742;51.716;8.790;2023-02-01T07:11:57;5.70;99.90
17252;DHT22;8742;51.716;8.790;2023-02-01T07:14:25;5.70;99.90
17252;DHT22;8742;51.716;8.790;2023-02-01T07:16:52;5.70;99.90
17252;DHT22;8742;51.716;8.790;2023-02-01T07:19:19;5.70;99.90
17252;DHT22;8742;51.716;8.790;2023-02-01T07:21:46;5.70;99.90
17252;DHT22;8742;51.716;8.790;2023-02-01T07:24:13;5.70;99.90
17252;DHT22;8742;51.716;8.790;2023-02-01T07:26:40;5.70;99.90
17252;DHT22;8742;51.716;8.790;2023-02-01T07:29:06;5.70;99.90
17252;DHT22;8742;51.716;8.790;2023-02-01T07:31:35;5.70;99.90
17252;DHT22;8742;51.716;8.790;2023-02-01T07:34:01;5.70;99.90
17252;DHT22;8742;51.716;8.790;2023-02-01T07:36:28;5.80;99.90
17252;DHT22;8742;51.716;8.790;2023-02-01T07:38:55;5.80;99.90
17252;DHT22;8742;51.716;8.790;2023-02-01T07:41:24;5.80;99.90
17252;DHT22;8742;51.716;8.790;2023-02-01T07:43:52;5.80;99.90
17252;DHT22;8742;51.716;8.790;2023-02-01T07:46:19;5.80;99.90
17252;DHT22;8742;51.716;8.790;2023-02-01T07:48:48;5.80;99.90
17252;DHT22;8742;51.716;8.790;2023-02-01T07:51:16;5.80;99.90
17252;DHT22;8742;51.716;8.790;2023-02-01T07:53:44;5.80;99.90
17252;DHT22;8742;51.716;8.790;2023-02-01T07:56:12;5.80;99.90
17252;DHT22;8742;51.716;8.790;2023-02-01T07:58:39;5.80;99.90
17252;DHT22;8742;51.716;8.790;2023-02-01T08:01:13;5.80;99.90
17252;DHT22;8742;51.716;8.790;2023-02-01T08:03:48;5.90;99.90
17252;DHT22;8742;51.716;8.790;2023-02-01T08:06:15;5.90;99.90
17252;DHT22;8742;51.716;8.790;2023-02-01T08:08:42;5.90;99.90
17252;DHT22;8742;51.716;8.790;2023-02-01T08:11:10;5.90;99.90
17252;DHT22;8742;51.716;8.790;2023-02-01T08:13:37;5.90;99.90
17252;DHT22;8742;51.716;8.790;2023-02-01T08:16:06;6.00;99.90
17252;DHT22;8742;51.716;8.790;2023-02-01T08:18:33;6.00;99.90
17252;DHT22;8742;51.716;8.790;2023-02-01T08:21:04;6.00;99.90
17252;DHT22;8742;51.716;8.790;2023-02-01T08:23:32;6.00;99.90
17252;DHT22;8742;51.716;8.790;2023-02-01T08:26:09;6.00;99.90
17252;DHT22;8742;51.716;8.790;2023-02-01T08:28:37;6.00;99.90
17252;DHT22;8742;51.716;8.790;2023-02-01T08:31:06;6.00;99.90
17252;DHT22;8742;51.716;8.790;2023-02-01T08:33:33;6.00;99.90
17252;DHT22;8742;51.716;8.790;2023-02-01T08:36:02;6.00;99.90
17252;DHT22;8742;51.716;8.790;2023-02-01T08:38:30;6.00;99.90
17252;DHT22;8742;51.716;8.790;2023-02-01T08:40:57;6.00;99.90
17252;DHT22;8742;51.716;8.790;2023-02-01T08:43:24;6.00;99.90
17252;DHT22;8742;51.716;8.790;2023-02-01T08:45:54;6.10;99.90
17252;DHT22;8742;51.716;8.790;2023-02-01T08:48:21;6.10;99.90
17252;DHT22;8742;51.716;8.790;2023-02-01T08:50:48;6.20;99.90
17252;DHT22;8742;51.716;8.790;2023-02-01T08:53:15;6.20;99.90
17252;DHT22;8742;51.716;8.790;2023-02-01T08:55:44;6.20;99.90
17252;DHT22;8742;51.716;8.790;2023-02-01T08:58:11;6.20;99.90
17252;DHT22;8742;51.716;8.790;2023-02-01T09:00:39;6.20;99.90
17252;DHT22;8742;51.716;8.790;2023-02-01T09:03:09;6.10;99.90
17252;DHT22;8742;51.716;8.790;2023-02-01T09:05:36;6.10;99.90
17252;DHT22;8742;51.716;8.790;2023-02-01T09:08:03;6.10;99.90
17252;DHT22;8742;51.716;8.790;2023-02-01T09:10:30;6.10;99.90
17252;DHT22;8742;51.716;8.790;2023-02-01T09:12:58;6.10;99.90
17252;DHT22;8742;51.716;8.790;2023-02-01T09:15:25;6.10;99.90
17252;DHT22;8742;51.716;8.790;2023-02-01T09:17:52;6.20;99.90
17252;DHT22;8742;51.716;8.790;2023-02-01T09:20:19;6.20;99.90
17252;DHT22;8742;51.716;8.790;2023-02-01T09:22:50;6.20;99.90
17252;DHT22;8742;51.716;8.790;2023-02-01T09:25:16;6.20;99.90
17252;DHT22;8742;51.716;8.790;2023-02-01T09:27:43;6.30;99.90
17252;DHT22;8742;51.716;8.790;2023-02-01T09:30:12;6.30;99.90
17252;DHT22;8742;51.716;8.790;2023-02-01T09:32:39;6.30;99.90
17252;DHT22;8742;51.716;8.790;2023-02-01T09:35:07;6.30;99.90
17252;DHT22;8742;51.716;8.790;2023-02-01T09:37:34;6.30;99.90
17252;DHT22;8742;51.716;8.790;2023-02-01T09:40:01;6.30;99.90
17252;DHT22;8742;51.716;8.790;2023-02-01T09:45:33;6.30;99.90
17252;DHT22;8742;51.716;8.790;2023-02-01T09:48:08;6.30;99.90
17252;DHT22;8742;51.716;8.790;2023-02-01T09:50:38;6.30;99.90
17252;DHT22;8742;51.716;8.790;2023-02-01T09:53:11;6.40;99.90
17252;DHT22;8742;51.716;8.790;2023-02-01T09:55:42;6.40;99.90
17252;DHT22;8742;51.716;8.790;2023-02-01T09:58:16;6.30;99.90
17252;DHT22;8742;51.716;8.790;2023-02-01T10:00:50;6.40;99.90
17252;DHT22;8742;51.716;8.790;2023-02-01T10:03:18;6.40;99.90
17252;DHT22;8742;51.716;8.790;2023-02-01T10:06:06;6.40;99.90
17252;DHT22;8742;51.716;8.790;2023-02-01T10:11:36;6.40;99.90
17252;DHT22;8742;51.716;8.790;2023-02-01T10:14:25;6.40;99.90
17252;DHT22;8742;51.716;8.790;2023-02-01T10:17:01;6.40;99.90
17252;DHT22;8742;51.716;8.790;2023-02-01T10:19:39;6.30;99.90
17252;DHT22;8742;51.716;8.790;2023-02-01T10:22:25;6.30;99.90
17252;DHT22;8742;51.716;8.790;2023-02-01T10:24:56;6.30;99.90
17252;DHT22;8742;51.716;8.790;2023-02-01T10:27:28;6.30;99.90
17252;DHT22;8742;51.716;8.790;2023-02-01T10:29:59;6.30;99.90
17252;DHT22;8742;51.716;8.790;2023-02-01T10:32:31;6.40;99.90
17252;DHT22;8742;51.716;8.790;2023-02-01T10:35:02;6.40;99.90
17252;DHT22;8742;51.716;8.790;2023-02-01T10:37:31;6.40;99.90
17252;DHT22;8742;51.716;8.790;2023-02-01T10:40:14;6.40;99.90
17252;DHT22;8742;51.716;8.790;2023-02-01T10:42:43;6.50;99.90
17252;DHT22;8742;51.716;8.790;2023-02-01T10:45:14;6.60;99.90
17252;DHT22;8742;51.716;8.790;2023-02-01T10:47:42;6.60;99.90
17252;DHT22;8742;51.716;8.790;2023-02-01T10:50:17;6.70;99.90
17252;DHT22;8742;51.716;8.790;2023-02-01T10:52:48;6.70;99.90
17252;DHT22;8742;51.716;8.790;2023-02-01T10:55:28;6.70;99.90
17252;DHT22;8742;51.716;8.790;2023-02-01T10:57:56;6.70;99.90
17252;DHT22;8742;51.716;8.790;2023-02-01T11:00:24;6.70;99.90
17252;DHT22;8742;51.716;8.790;2023-02-01T11:02:53;6.70;99.90
17252;DHT22;8742;51.716;8.790;2023-02-01T11:05:20;6.70;99.90
17252;DHT22;8742;51.716;8.790;2023-02-01T11:07:49;6.70;99.90
17252;DHT22;8742;51.716;8.790;2023-02-01T11:10:40;6.70;99.90
17252;DHT22;8742;51.716;8.790;2023-02-01T11:13:14;6.70;99.90
17252;DHT22;8742;51.716;8.790;2023-02-01T11:15:43;6.70;99.90
17252;DHT22;8742;51.716;8.790;2023-02-01T11:18:18;6.70;99.90
17252;DHT22;8742;51.716;8.790;2023-02-01T11:20:46;6.70;99.90
17252;DHT22;8742;51.716;8.790;2023-02-01T11:23:16;6.70;99.90
17252;DHT22;8742;51.716;8.790;2023-02-01T11:25:51;6.60;99.90
17252;DHT22;8742;51.716;8.790;2023-02-01T11:28:21;6.70;99.90
17252;DHT22;8742;51.716;8.790;2023-02-01T11:30:48;6.70;99.90
17252;DHT22;8742;51.716;8.790;2023-02-01T11:33:20;6.70;99.90
17252;DHT22;8742;51.716;8.790;2023-02-01T11:35:51;6.70;99.90
17252;DHT22;8742;51.716;8.790;2023-02-01T11:38:21;6.70;99.90
17252;DHT22;8742;51.716;8.790;2023-02-01T11:40:48;6.70;99.90
17252;DHT22;8742;51.716;8.790;2023-02-01T11:43:23;6.70;99.90
17252;DHT22;8742;51.716;8.790;2023-02-01T11:45:55;6.70;99.90
17252;DHT22;8742;51.716;8.790;2023-02-01T11:48:25;6.70;99.90
17252;DHT22;8742;51.716;8.790;2023-02-01T11:51:00;6.70;99.90
17252;DHT22;8742;51.716;8.790;2023-02-01T11:53:41;6.80;99.90
17252;DHT22;8742;51.716;8.790;2023-02-01T11:56:15;6.80;99.90
17252;DHT22;8742;51.716;8.790;2023-02-01T11:59:02;6.80;99.90
17252;DHT22;8742;51.716;8.790;2023-02-01T12:01:40;6.80;99.90
17252;DHT22;8742;51.716;8.790;2023-02-01T12:07:17;6.80;99.90
17252;DHT22;8742;51.716;8.790;2023-02-01T12:09:57;6.80;99.90
17252;DHT22;8742;51.716;8.790;2023-02-01T12:12:35;6.80;99.90
17252;DHT22;8742;51.716;8.790;2023-02-01T12:15:16;6.70;99.90
17252;DHT22;8742;51.716;8.790;2023-02-01T12:21:04;6.70;99.90
17252;DHT22;8742;51.716;8.790;2023-02-01T12:23:46;6.70;99.90
17252;DHT22;8742;51.716;8.790;2023-02-01T12:26:35;6.50;99.90
17252;DHT22;8742;51.716;8.790;2023-02-01T12:29:22;6.50;99.90
17252;DHT22;8742;51.716;8.790;2023-02-01T12:32:09;6.40;99.90
17252;DHT22;8742;51.716;8.790;2023-02-01T12:34:57;6.30;99.90
17252;DHT22;8742;51.716;8.790;2023-02-01T12:37:36;6.30;99.90
17252;DHT22;8742;51.716;8.790;2023-02-01T12:40:21;6.20;99.90
17252;DHT22;8742;51.716;8.790;2023-02-01T12:42:57;6.20;99.90
17252;DHT22;8742;51.716;8.790;2023-02-01T12:45:31;6.20;99.90
17252;DHT22;8742;51.716;8.790;2023-02-01T12:48:06;6.10;99.90
17252;DHT22;8742;51.716;8.790;2023-02-01T12:50:43;6.00;99.90
17252;DHT22;8742;51.716;8.790;2023-02-01T12:53:16;6.00;99.90
17252;DHT22;8742;51.716;8.790;2023-02-01T12:55:50;5.90;99.90
17252;DHT22;8742;51.716;8.790;2023-02-01T12:58:23;5.90;99.90
17252;DHT22;8742;51.716;8.790;2023-02-01T13:00:54;5.80;99.90
17252;DHT22;8742;51.716;8.790;2023-02-01T13:03:31;5.80;99.90
17252;DHT22;8742;51.716;8.790;2023-02-01T13:06:04;5.80;99.90
17252;DHT22;8742;51.716;8.790;2023-02-01T13:08:39;5.70;99.90
17252;DHT22;8742;51.716;8.790;2023-02-01T13:11:12;5.70;99.90
17252;DHT22;8742;51.716;8.790;2023-02-01T13:13:46;5.70;99.90
17252;DHT22;8742;51.716;8.790;2023-02-01T13:16:17;5.70;99.90
17252;DHT22;8742;51.716;8.790;2023-02-01T13:18:49;5.70;99.90
17252;DHT22;8742;51.716;8.790;2023-02-01T13:21:20;5.60;99.90
17252;DHT22;8742;51.716;8.790;2023-02-01T13:23:48;5.60;99.90
17252;DHT22;8742;51.716;8.790;2023-02-01T13:26:18;5.60;99.90
17252;DHT22;8742;51.716;8.790;2023-02-01T13:28:47;5.50;99.90
17252;DHT22;8742;51.716;8.790;2023-02-01T13:31:39;5.50;99.90
17252;DHT22;8742;51.716;8.790;2023-02-01T13:37:21;5.50;99.90
17252;DHT22;8742;51.716;8.790;2023-02-01T13:40:00;5.40;99.90
17252;DHT22;8742;51.716;8.790;2023-02-01T13:42:46;5.40;99.90
17252;DHT22;8742;51.716;8.790;2023-02-01T13:45:15;5.40;99.90
17252;DHT22;8742;51.716;8.790;2023-02-01T13:47:45;5.40;99.90
17252;DHT22;8742;51.716;8.790;2023-02-01T13:50:19;5.40;99.90
17252;DHT22;8742;51.716;8.790;2023-02-01T13:52:53;5.40;99.90
17252;DHT22;8742;51.716;8.790;2023-02-01T13:55:29;5.40;99.90
17252;DHT22;8742;51.716;8.790;2023-02-01T13:58:13;5.40;99.90
17252;DHT22;8742;51.716;8.790;2023-02-01T14:00:41;5.50;99.90
17252;DHT22;8742;51.716;8.790;2023-02-01T14:03:18;5.50;99.90
17252;DHT22;8742;51.716;8.790;2023-02-01T14:09:15;5.60;99.90
17252;DHT22;8742;51.716;8.790;2023-02-01T14:11:45;5.60;99.90
17252;DHT22;8742;51.716;8.790;2023-02-01T14:14:45;5.60;99.90
17252;DHT22;8742;51.716;8.790;2023-02-01T14:17:31;5.60;99.90
17252;DHT22;8742;51.716;8.790;2023-02-01T14:23:37;5.70;99.90
17252;DHT22;8742;51.716;8.790;2023-02-01T14:28:54;5.80;99.90
17252;DHT22;8742;51.716;8.790;2023-02-01T14:31:46;5.80;99.90
17252;DHT22;8742;51.716;8.790;2023-02-01T14:34:25;5.80;99.90
17252;DHT22;8742;51.716;8.790;2023-02-01T14:36:58;5.90;99.90
17252;DHT22;8742;51.716;8.790;2023-02-01T14:39:31;5.90;99.90
17252;DHT22;8742;51.716;8.790;2023-02-01T14:42:03;6.00;99.90
17252;DHT22;8742;51.716;8.790;2023-02-01T14:44:36;6.00;99.90
17252;DHT22;8742;51.716;8.790;2023-02-01T14:47:10;6.00;99.90
17252;DHT22;8742;51.716;8.790;2023-02-01T14:49:41;6.10;99.90
17252;DHT22;8742;51.716;8.790;2023-02-01T14:52:14;6.10;99.90
17252;DHT22;8742;51.716;8.790;2023-02-01T14:54:45;6.10;99.90
17252;DHT22;8742;51.716;8.790;2023-02-01T14:57:16;6.20;99.90
17252;DHT22;8742;51.716;8.790;2023-02-01T14:59:45;6.20;99.90
17252;DHT22;8742;51.716;8.790;2023-02-01T15:02:21;6.20;99.90
17252;DHT22;8742;51.716;8.790;2023-02-01T15:04:54;6.30;99.90
17252;DHT22;8742;51.716;8.790;2023-02-01T15:07:24;6.20;99.90
17252;DHT22;8742;51.716;8.790;2023-02-01T15:09:53;6.20;99.90
17252;DHT22;8742;51.716;8.790;2023-02-01T15:12:25;6.10;99.90
17252;DHT22;8742;51.716;8.790;2023-02-01T15:15:13;6.10;99.90
17252;DHT22;8742;51.716;8.790;2023-02-01T15:17:41;6.00;99.90
17252;DHT22;8742;51.716;8.790;2023-02-01T15:20:14;5.90;99.90
17252;DHT22;8742;51.716;8.790;2023-02-01T15:22:41;5.90;99.90
17252;DHT22;8742;51.716;8.790;2023-02-01T15:25:19;5.90;99.90
17252;DHT22;8742;51.716;8.790;2023-02-01T15:27:47;5.80;99.90
17252;DHT22;8742;51.716;8.790;2023-02-01T15:30:19;5.80;99.90
17252;DHT22;8742;51.716;8.790;2023-02-01T15:32:48;5.50;99.90
17252;DHT22;8742;51.716;8.790;2023-02-01T15:35:36;5.10;99.90
17252;DHT22;8742;51.716;8.790;2023-02-01T15:38:35;4.60;99.90
17252;DHT22;8742;51.716;8.790;2023-02-01T15:41:05;4.20;99.90
17252;DHT22;8742;51.716;8.790;2023-02-01T15:43:35;4.00;99.90
17252;DHT22;8742;51.716;8.790;2023-02-01T15:46:06;3.80;99.90
17252;DHT22;8742;51.716;8.790;2023-02-01T15:48:40;3.70;99.90
17252;DHT22;8742;51.716;8.790;2023-02-01T15:51:13;3.60;99.90
17252;DHT22;8742;51.716;8.790;2023-02-01T15:53:48;3.60;99.90
17252;DHT22;8742;51.716;8.790;2023-02-01T15:56:28;3.50;99.90
17252;DHT22;8742;51.716;8.790;2023-02-01T15:58:58;3.50;99.90
17252;DHT22;8742;51.716;8.790;2023-02-01T16:01:25;3.50;99.90
17252;DHT22;8742;51.716;8.790;2023-02-01T16:04:09;3.60;99.90
17252;DHT22;8742;51.716;8.790;2023-02-01T16:06:45;3.60;99.90
17252;DHT22;8742;51.716;8.790;2023-02-01T16:09:17;3.60;99.90
17252;DHT22;8742;51.716;8.790;2023-02-01T16:11:52;3.60;99.90
17252;DHT22;8742;51.716;8.790;2023-02-01T16:14:20;3.60;99.90
17252;DHT22;8742;51.716;8.790;2023-02-01T16:16:47;3.70;99.90
17252;DHT22;8742;51.716;8.790;2023-02-01T16:19:16;3.80;99.90
17252;DHT22;8742;51.716;8.790;2023-02-01T16:21:43;3.80;99.90
17252;DHT22;8742;51.716;8.790;2023-02-01T16:24:10;4.00;99.90
17252;DHT22;8742;51.716;8.790;2023-02-01T16:26:39;4.10;99.90
17252;DHT22;8742;51.716;8.790;2023-02-01T16:29:10;4.30;99.90
17252;DHT22;8742;51.716;8.790;2023-02-01T16:31:39;4.30;99.90
17252;DHT22;8742;51.716;8.790;2023-02-01T16:34:09;4.30;99.90
17252;DHT22;8742;51.716;8.790;2023-02-01T16:36:38;4.40;99.90
17252;DHT22;8742;51.716;8.790;2023-02-01T16:39:06;4.40;99.90
17252;DHT22;8742;51.716;8.790;2023-02-01T16:41:34;4.40;99.90
17252;DHT22;8742;51.716;8.790;2023-02-01T16:44:01;4.40;99.90
17252;DHT22;8742;51.716;8.790;2023-02-01T16:46:33;4.40;99.90
17252;DHT22;8742;51.716;8.790;2023-02-01T16:49:01;4.50;99.90
17252;DHT22;8742;51.716;8.790;2023-02-01T16:51:31;4.40;99.90
17252;DHT22;8742;51.716;8.790;2023-02-01T16:54:01;4.40;99.90
17252;DHT22;8742;51.716;8.790;2023-02-01T16:56:30;4.40;99.90
17252;DHT22;8742;51.716;8.790;2023-02-01T16:58:58;4.40;99.90
17252;DHT22;8742;51.716;8.790;2023-02-01T17:01:27;4.40;99.90